createdAt,value
2023-03-05T00:00:10.081Z,12.17
2023-03-05T00:02:40.698Z,13.43
2023-03-05T00:05:08.245Z,12.40
2023-03-05T00:07:35.793Z,13.10
2023-03-05T00:10:03.753Z,13.45
2023-03-05T00:12:31.117Z,13.87
2023-03-05T00:14:58.350Z,14.07
2023-03-05T00:17:25.616Z,16.60
2023-03-05T00:19:52.921Z,17.15
2023-03-05T00:22:20.228Z,16.75
2023-03-05T00:24:50.585Z,14.07
2023-03-05T00:27:17.806Z,13.18
2023-03-05T00:29:44.992Z,17.20
2023-03-05T00:32:12.221Z,15.23
2023-03-05T00:34:39.682Z,13.05
2023-03-05T00:37:07.094Z,15.13
2023-03-05T00:39:34.426Z,14.23
2023-03-05T00:42:01.688Z,14.80
2023-03-05T00:44:28.970Z,15.45
2023-03-05T00:46:56.365Z,16.33
2023-03-05T00:49:23.598Z,14.40
2023-03-05T00:51:51.515Z,17.88
2023-03-05T00:54:19.181Z,16.92
2023-03-05T00:56:47.905Z,14.40
2023-03-05T00:59:15.244Z,14.88
2023-03-05T01:01:42.806Z,17.10
2023-03-05T01:04:10.267Z,15.40
2023-03-05T01:06:39.538Z,14.25
2023-03-05T01:09:06.793Z,14.98
2023-03-05T01:11:34.450Z,17.77
2023-03-05T01:14:01.716Z,54.77
2023-03-05T01:16:29.727Z,23.73
2023-03-05T01:18:57.032Z,33.83
2023-03-05T01:21:24.350Z,19.35
2023-03-05T01:23:51.636Z,17.08
2023-03-05T01:26:18.836Z,17.67
2023-03-05T01:28:47.021Z,15.98
2023-03-05T01:31:14.277Z,16.83
2023-03-05T01:33:41.688Z,17.02
2023-03-05T01:36:15.124Z,19.55
2023-03-05T01:38:45.459Z,14.87
2023-03-05T01:41:13.239Z,17.33
2023-03-05T01:43:41.079Z,18.20
2023-03-05T01:46:32.472Z,19.27
2023-03-05T01:49:21.219Z,18.77
2023-03-05T01:51:58.483Z,18.87
2023-03-05T01:54:37.429Z,19.55
2023-03-05T01:57:15.878Z,19.75
2023-03-05T01:59:44.893Z,18.42
2023-03-05T02:02:13.195Z,17.75
2023-03-05T02:04:43.590Z,19.53
2023-03-05T02:07:11.357Z,19.08
2023-03-05T02:09:41.982Z,16.75
2023-03-05T02:12:10.526Z,17.15
2023-03-05T02:14:38.275Z,16.05
2023-03-05T02:17:05.635Z,18.60
2023-03-05T02:19:47.049Z,19.42
2023-03-05T02:22:19.635Z,17.77
2023-03-05T02:24:47.095Z,20.80
2023-03-05T02:27:14.428Z,15.48
2023-03-05T02:29:43.234Z,19.17
2023-03-05T02:32:10.546Z,18.08
2023-03-05T02:34:38.084Z,18.00
2023-03-05T02:37:09.379Z,16.75
2023-03-05T02:39:38.285Z,22.50
2023-03-05T02:42:07.095Z,17.13
2023-03-05T02:44:34.530Z,20.77
2023-03-05T02:47:01.853Z,17.17
2023-03-05T02:49:29.321Z,21.52
2023-03-05T02:51:56.397Z,16.05
2023-03-05T02:54:23.682Z,17.93
2023-03-05T02:56:50.931Z,17.48
2023-03-05T02:59:18.291Z,15.32
2023-03-05T03:01:45.976Z,18.48
2023-03-05T03:04:13.152Z,16.27
2023-03-05T03:06:40.304Z,16.20
2023-03-05T03:09:07.428Z,15.57
2023-03-05T03:11:34.583Z,16.85
2023-03-05T03:14:01.836Z,15.07
2023-03-05T03:16:29.163Z,17.20
2023-03-05T03:18:56.766Z,16.13
2023-03-05T03:21:28.722Z,15.07
2023-03-05T03:23:56.101Z,18.05
2023-03-05T03:26:24.496Z,18.65
2023-03-05T03:28:51.744Z,17.13
2023-03-05T03:31:19.255Z,17.97
2023-03-05T03:33:46.617Z,15.60
2023-03-05T03:36:13.874Z,17.50
2023-03-05T03:38:41.031Z,15.18
2023-03-05T03:41:08.400Z,13.90
2023-03-05T03:43:36.250Z,16.47
2023-03-05T03:46:07.779Z,18.60
2023-03-05T03:48:36.279Z,19.30
2023-03-05T03:51:07.529Z,18.95
2023-03-05T03:53:34.742Z,17.38
2023-03-05T03:56:02.174Z,16.87
2023-03-05T03:58:29.566Z,16.20
2023-03-05T04:00:56.956Z,18.25
2023-03-05T04:03:24.116Z,15.90
2023-03-05T04:05:51.402Z,16.15
2023-03-05T04:08:18.556Z,19.43
2023-03-05T04:10:45.757Z,17.02
2023-03-05T04:13:12.882Z,16.00
2023-03-05T04:15:40.100Z,17.73
2023-03-05T04:18:07.279Z,14.65
2023-03-05T04:20:37.274Z,14.20
2023-03-05T04:23:04.620Z,16.40
2023-03-05T04:25:31.786Z,18.33
2023-03-05T04:27:58.951Z,18.20
2023-03-05T04:30:26.284Z,17.25
2023-03-05T04:32:53.360Z,16.83
2023-03-05T04:35:20.551Z,16.38
2023-03-05T04:37:47.651Z,15.43
2023-03-05T04:40:14.951Z,16.02
2023-03-05T04:42:42.158Z,19.17
2023-03-05T04:45:09.622Z,13.87
2023-03-05T04:47:36.860Z,15.10
2023-03-05T04:50:04.958Z,16.38
2023-03-05T04:52:32.205Z,15.57
2023-03-05T04:54:59.416Z,15.45
2023-03-05T04:57:26.817Z,17.77
2023-03-05T04:59:54.051Z,16.05
2023-03-05T05:02:21.540Z,16.30
2023-03-05T05:04:48.872Z,16.30
2023-03-05T05:07:16.745Z,17.63
2023-03-05T05:09:43.869Z,15.63
2023-03-05T05:12:11.137Z,15.82
2023-03-05T05:14:38.622Z,15.07
2023-03-05T05:17:06.081Z,14.05
2023-03-05T05:19:34.235Z,14.60
2023-03-05T05:22:01.761Z,13.20
2023-03-05T05:24:29.058Z,12.32
2023-03-05T05:26:56.467Z,15.88
2023-03-05T05:29:23.907Z,15.15
2023-03-05T05:31:51.334Z,14.30
2023-03-05T05:34:18.828Z,14.17
2023-03-05T05:36:46.132Z,15.88
2023-03-05T05:39:13.509Z,13.27
2023-03-05T05:41:40.915Z,14.90
2023-03-05T05:44:08.116Z,15.82
2023-03-05T05:46:35.428Z,16.93
2023-03-05T05:49:02.614Z,12.65
2023-03-05T05:51:29.920Z,12.57
2023-03-05T05:53:57.217Z,11.27
2023-03-05T05:56:24.571Z,15.45
2023-03-05T05:58:51.996Z,15.87
2023-03-05T06:01:28.746Z,14.45
2023-03-05T06:03:56.496Z,14.15
2023-03-05T06:06:24.909Z,15.52
2023-03-05T06:08:52.279Z,14.30
2023-03-05T06:11:19.710Z,13.00
2023-03-05T06:14:02.877Z,12.50
2023-03-05T06:16:30.902Z,14.13
2023-03-05T06:18:58.288Z,13.35
2023-03-05T06:21:25.579Z,17.40
2023-03-05T06:23:52.932Z,15.23
2023-03-05T06:26:21.132Z,16.40
2023-03-05T06:28:48.515Z,17.58
2023-03-05T06:31:17.534Z,16.65
2023-03-05T06:33:44.930Z,17.60
2023-03-05T06:36:14.299Z,24.10
2023-03-05T06:38:42.023Z,19.77
2023-03-05T06:41:11.932Z,20.48
2023-03-05T06:43:40.485Z,17.73
2023-03-05T06:46:15.299Z,17.70
2023-03-05T06:48:43.688Z,14.90
2023-03-05T06:51:18.199Z,14.23
2023-03-05T06:53:49.248Z,14.68
2023-03-05T06:56:17.164Z,14.82
2023-03-05T06:58:46.060Z,15.15
2023-03-05T07:01:14.179Z,18.13
2023-03-05T07:03:41.825Z,14.97
2023-03-05T07:06:13.148Z,14.70
2023-03-05T07:08:40.507Z,17.73
2023-03-05T07:11:14.995Z,16.15
2023-03-05T07:13:43.691Z,17.10
2023-03-05T07:16:14.221Z,13.47
2023-03-05T07:18:41.537Z,18.10
2023-03-05T07:21:09.293Z,21.85
2023-03-05T07:23:36.536Z,33.53
2023-03-05T07:26:04.756Z,29.60
2023-03-05T07:28:32.500Z,26.93
2023-03-05T07:31:01.211Z,26.10
2023-03-05T07:33:28.878Z,28.95
2023-03-05T07:35:56.571Z,25.35
2023-03-05T07:38:24.261Z,22.10
2023-03-05T07:40:51.489Z,19.37
2023-03-05T07:43:19.159Z,20.23
2023-03-05T07:45:46.815Z,22.80
2023-03-05T07:48:16.289Z,27.83
2023-03-05T07:50:44.239Z,18.77
2023-03-05T07:53:11.606Z,21.57
2023-03-05T07:55:48.089Z,19.05
2023-03-05T07:58:15.300Z,19.27
2023-03-05T08:00:42.605Z,18.48
2023-03-05T08:03:10.181Z,17.95
2023-03-05T08:05:40.145Z,18.57
2023-03-05T08:08:07.804Z,17.70
2023-03-05T08:10:35.597Z,14.13
2023-03-05T08:13:03.229Z,14.32
2023-03-05T08:15:32.015Z,15.82
2023-03-05T08:17:59.321Z,19.55
2023-03-05T08:20:26.497Z,14.32
2023-03-05T08:22:54.728Z,14.27
2023-03-05T08:25:22.401Z,14.18
2023-03-05T08:27:50.939Z,13.55
2023-03-05T08:30:20.544Z,14.65
2023-03-05T08:32:49.004Z,11.87
2023-03-05T08:35:16.773Z,16.75
2023-03-05T08:37:43.967Z,13.35
2023-03-05T08:40:11.582Z,13.20
2023-03-05T08:42:38.875Z,13.20
2023-03-05T08:45:07.286Z,14.23
2023-03-05T08:47:34.478Z,15.82
2023-03-05T08:50:01.765Z,15.30
2023-03-05T08:52:29.010Z,15.02
2023-03-05T08:54:56.236Z,15.27
2023-03-05T08:57:23.494Z,15.50
2023-03-05T08:59:50.810Z,14.48
2023-03-05T09:02:18.073Z,13.65
2023-03-05T09:04:45.345Z,18.35
2023-03-05T09:07:13.374Z,13.20
2023-03-05T09:09:40.750Z,14.83
2023-03-05T09:12:08.352Z,14.52
2023-03-05T09:14:36.101Z,13.98
2023-03-05T09:17:03.731Z,16.02
2023-03-05T09:19:31.053Z,15.40
2023-03-05T09:21:58.397Z,12.87
2023-03-05T09:24:25.708Z,13.85
2023-03-05T09:26:52.903Z,12.98
2023-03-05T09:29:20.231Z,11.27
2023-03-05T09:31:51.133Z,10.57
2023-03-05T09:34:18.952Z,11.00
2023-03-05T09:36:46.155Z,9.90
2023-03-05T09:39:13.566Z,12.90
2023-03-05T09:41:55.855Z,12.35
2023-03-05T09:44:30.001Z,10.40
2023-03-05T09:47:10.337Z,10.77
2023-03-05T09:49:40.289Z,12.18
2023-03-05T09:52:11.920Z,12.40
2023-03-05T09:54:41.984Z,12.48
2023-03-05T09:57:22.880Z,13.73
2023-03-05T10:00:01.761Z,10.80
2023-03-05T10:02:43.815Z,9.07
2023-03-05T10:05:18.355Z,10.35
2023-03-05T10:07:50.949Z,9.50
2023-03-05T10:10:27.373Z,10.48
2023-03-05T10:12:57.840Z,11.33
2023-03-05T10:15:32.029Z,9.50
2023-03-05T10:18:06.327Z,11.50
2023-03-05T10:20:36.452Z,7.50
2023-03-05T10:23:13.081Z,8.45
2023-03-05T10:25:45.950Z,9.40
2023-03-05T10:28:18.729Z,10.30
2023-03-05T10:31:04.534Z,9.55
2023-03-05T10:33:35.104Z,8.07
2023-03-05T10:36:25.538Z,8.63
2023-03-05T10:39:00.484Z,8.63
2023-03-05T10:41:38.043Z,6.70
2023-03-05T10:44:10.078Z,7.85
2023-03-05T10:46:38.546Z,7.93
2023-03-05T10:49:23.917Z,7.85
2023-03-05T10:52:05.384Z,8.07
2023-03-05T10:54:34.277Z,6.75
2023-03-05T10:57:13.487Z,8.07
2023-03-05T10:59:49.818Z,7.82
2023-03-05T11:02:17.613Z,6.93
2023-03-05T11:04:45.102Z,5.63
2023-03-05T11:07:15.379Z,4.93
2023-03-05T11:10:02.725Z,5.07
2023-03-05T11:12:33.561Z,6.90
2023-03-05T11:15:09.969Z,6.00
2023-03-05T11:17:50.739Z,7.73
2023-03-05T11:20:20.650Z,5.28
2023-03-05T11:23:06.641Z,6.85
2023-03-05T11:25:34.582Z,6.68
2023-03-05T11:28:02.967Z,6.70
2023-03-05T11:30:32.168Z,6.40
2023-03-05T11:33:10.593Z,4.40
2023-03-05T11:35:40.713Z,5.82
2023-03-05T11:38:21.383Z,6.18
2023-03-05T11:40:49.384Z,6.88
2023-03-05T11:43:18.514Z,6.03
2023-03-05T11:45:47.839Z,8.52
2023-03-05T11:48:23.150Z,7.80
2023-03-05T11:50:52.940Z,7.13
2023-03-05T11:53:25.063Z,7.20
2023-03-05T11:55:56.460Z,7.30
2023-03-05T11:58:36.054Z,9.85
2023-03-05T12:01:07.063Z,8.32
2023-03-05T12:03:35.870Z,6.82
2023-03-05T12:06:23.388Z,9.55
2023-03-05T12:08:52.467Z,8.50
2023-03-05T12:11:21.219Z,7.63
2023-03-05T12:13:50.729Z,8.40
2023-03-05T12:16:26.146Z,7.07
2023-03-05T12:18:58.122Z,8.10
2023-03-05T12:21:33.317Z,9.43
2023-03-05T12:24:02.204Z,8.88
2023-03-05T12:26:48.378Z,8.88
2023-03-05T12:29:34.446Z,8.73
2023-03-05T12:32:02.569Z,8.05
2023-03-05T12:34:43.035Z,8.23
2023-03-05T12:37:15.127Z,8.02
2023-03-05T12:39:45.381Z,7.18
2023-03-05T12:42:31.012Z,9.88
2023-03-05T12:45:10.523Z,9.55
2023-03-05T12:47:40.314Z,10.20
2023-03-05T12:50:30.946Z,9.50
2023-03-05T12:53:10.174Z,8.45
2023-03-05T12:55:40.285Z,9.90
2023-03-05T12:58:13.508Z,7.50
2023-03-05T13:01:01.619Z,9.40
2023-03-05T13:03:34.669Z,8.82
2023-03-05T13:06:04.435Z,7.70
2023-03-05T13:08:35.759Z,9.18
2023-03-05T13:11:08.376Z,12.40
2023-03-05T13:13:37.911Z,6.77
2023-03-05T13:16:05.640Z,6.57
2023-03-05T13:18:33.332Z,5.65
2023-03-05T13:21:06.514Z,6.05
2023-03-05T13:23:35.011Z,6.18
2023-03-05T13:26:19.024Z,8.93
2023-03-05T13:29:03.224Z,7.07
2023-03-05T13:31:30.736Z,6.50
2023-03-05T13:33:59.993Z,6.50
2023-03-05T13:36:29.032Z,7.60
2023-03-05T13:38:56.412Z,6.77
2023-03-05T13:41:28.077Z,8.40
2023-03-05T13:43:59.701Z,7.22
2023-03-05T13:46:34.315Z,8.93
2023-03-05T13:49:31.102Z,7.32
2023-03-05T13:52:00.319Z,8.43
2023-03-05T13:54:28.398Z,5.65
2023-03-05T13:56:58.319Z,5.80
2023-03-05T13:59:28.261Z,5.97
2023-03-05T14:01:57.126Z,12.82
2023-03-05T14:04:44.375Z,5.70
2023-03-05T14:07:18.862Z,8.88
2023-03-05T14:09:48.223Z,12.60
2023-03-05T14:12:34.760Z,9.00
2023-03-05T14:15:05.806Z,10.10
2023-03-05T14:17:41.165Z,15.47
2023-03-05T14:20:08.648Z,10.35
2023-03-05T14:22:38.270Z,11.52
2023-03-05T14:25:06.928Z,9.98
2023-03-05T14:27:35.776Z,10.50
2023-03-05T14:30:04.634Z,10.50
2023-03-05T14:32:34.042Z,13.52
2023-03-05T14:35:02.478Z,11.57
2023-03-05T14:37:37.310Z,9.48
2023-03-05T14:40:14.663Z,10.35
2023-03-05T14:42:52.213Z,8.97
2023-03-05T14:45:23.705Z,14.77
2023-03-05T14:47:51.795Z,8.80
2023-03-05T14:50:20.697Z,10.73
2023-03-05T14:52:48.919Z,7.88
2023-03-05T14:55:16.864Z,7.50
2023-03-05T14:57:44.336Z,8.90
2023-03-05T15:00:16.101Z,6.97
2023-03-05T15:02:45.853Z,8.43
2023-03-05T15:05:13.152Z,10.40
2023-03-05T15:07:40.342Z,11.00
2023-03-05T15:10:08.928Z,8.77
2023-03-05T15:12:37.162Z,10.75
2023-03-05T15:15:06.198Z,12.90
2023-03-05T15:17:42.699Z,15.32
2023-03-05T15:20:19.060Z,11.57
2023-03-05T15:22:46.715Z,13.80
2023-03-05T15:25:14.468Z,12.23
2023-03-05T15:27:41.920Z,13.27
2023-03-05T15:30:10.036Z,12.68
2023-03-05T15:32:38.380Z,15.27
2023-03-05T15:35:06.871Z,15.13
2023-03-05T15:37:37.137Z,15.15
2023-03-05T15:40:04.483Z,15.10
2023-03-05T15:42:31.629Z,16.20
2023-03-05T15:45:01.541Z,16.47
2023-03-05T15:47:31.134Z,18.80
2023-03-05T15:49:59.947Z,17.50
2023-03-05T15:52:27.788Z,17.70
2023-03-05T15:54:55.113Z,20.40
2023-03-05T15:57:22.876Z,17.63
2023-03-05T15:59:50.274Z,18.02
2023-03-05T16:02:24.960Z,21.85
2023-03-05T16:04:52.243Z,20.35
2023-03-05T16:07:23.640Z,18.67
2023-03-05T16:09:51.885Z,20.50
2023-03-05T16:12:21.934Z,20.38
2023-03-05T16:14:51.660Z,18.58
2023-03-05T16:17:22.084Z,18.92
2023-03-05T16:19:52.255Z,19.63
2023-03-05T16:22:19.441Z,20.03
2023-03-05T16:24:46.881Z,22.50
2023-03-05T16:27:14.258Z,18.00
2023-03-05T16:29:41.601Z,22.23
2023-03-05T16:32:09.949Z,19.05
2023-03-05T16:34:37.141Z,22.53
2023-03-05T16:37:07.535Z,22.08
2023-03-05T16:39:35.591Z,22.75
2023-03-05T16:42:05.161Z,25.92
2023-03-05T16:44:32.679Z,22.80
2023-03-05T16:47:00.122Z,21.20
2023-03-05T16:49:27.514Z,23.77
2023-03-05T16:51:54.643Z,23.85
2023-03-05T16:54:22.441Z,23.85
2023-03-05T16:56:49.678Z,20.85
2023-03-05T16:59:17.029Z,25.80
2023-03-05T17:01:47.872Z,24.63
2023-03-05T17:04:17.296Z,21.83
2023-03-05T17:06:49.673Z,25.38
2023-03-05T17:09:19.619Z,22.70
2023-03-05T17:11:46.885Z,25.15
2023-03-05T17:14:14.367Z,25.60
2023-03-05T17:16:44.545Z,25.25
2023-03-05T17:19:11.732Z,21.88
2023-03-05T17:21:41.986Z,22.05
2023-03-05T17:24:10.241Z,22.02
2023-03-05T17:26:37.653Z,25.10
2023-03-05T17:29:05.214Z,23.17
2023-03-05T17:31:32.440Z,19.98
2023-03-05T17:33:59.689Z,22.35
2023-03-05T17:36:26.882Z,23.63
2023-03-05T17:38:54.413Z,23.35
2023-03-05T17:41:23.389Z,24.10
2023-03-05T17:43:51.697Z,21.30
2023-03-05T17:46:18.879Z,21.88
2023-03-05T17:48:46.698Z,21.52
2023-03-05T17:51:14.504Z,21.98
2023-03-05T17:53:41.883Z,20.70
2023-03-05T17:56:10.393Z,19.80
2023-03-05T17:58:38.164Z,22.98
2023-03-05T18:01:06.181Z,23.48
2023-03-05T18:03:33.499Z,31.13
2023-03-05T18:06:00.820Z,27.45
2023-03-05T18:08:28.274Z,24.38
2023-03-05T18:10:55.691Z,24.60
2023-03-05T18:13:23.047Z,22.25
2023-03-05T18:15:50.534Z,21.07
2023-03-05T18:18:18.184Z,22.88
2023-03-05T18:20:45.753Z,19.75
2023-03-05T18:23:13.231Z,20.13
2023-03-05T18:25:40.695Z,19.48
2023-03-05T18:28:09.302Z,22.25
2023-03-05T18:30:36.959Z,23.10
2023-03-05T18:33:04.292Z,22.13
2023-03-05T18:35:32.596Z,21.48
2023-03-05T18:37:59.976Z,24.58
2023-03-05T18:40:29.058Z,31.50
2023-03-05T18:42:56.269Z,25.10
2023-03-05T18:45:23.639Z,29.85
2023-03-05T18:47:54.538Z,23.58
2023-03-05T18:50:22.610Z,23.77
2023-03-05T18:52:49.920Z,22.20
2023-03-05T18:55:27.677Z,24.08
2023-03-05T18:57:55.471Z,23.48
2023-03-05T19:00:27.417Z,23.60
2023-03-05T19:02:55.437Z,24.83
2023-03-05T19:05:22.872Z,21.42
2023-03-05T19:07:50.101Z,20.98
2023-03-05T19:10:18.078Z,21.80
2023-03-05T19:13:11.052Z,22.08
2023-03-05T19:15:43.506Z,21.33
2023-03-05T19:18:10.758Z,23.27
2023-03-05T19:20:38.055Z,23.95
2023-03-05T19:23:05.257Z,19.70
2023-03-05T19:25:32.498Z,22.50
2023-03-05T19:27:59.632Z,23.35
2023-03-05T19:30:26.886Z,22.50
2023-03-05T19:32:54.020Z,24.40
2023-03-05T19:35:21.170Z,18.70
2023-03-05T19:37:48.409Z,25.10
2023-03-05T19:40:15.656Z,21.85
2023-03-05T19:42:43.071Z,21.70
2023-03-05T19:45:10.489Z,20.75
2023-03-05T19:47:37.635Z,21.23
2023-03-05T19:50:05.732Z,21.60
2023-03-05T19:52:33.002Z,20.40
2023-03-05T19:55:00.524Z,23.17
2023-03-05T19:57:27.773Z,25.40
2023-03-05T19:59:54.950Z,20.23
2023-03-05T20:02:22.265Z,23.67
2023-03-05T20:04:49.922Z,18.30
2023-03-05T20:07:17.350Z,24.73
2023-03-05T20:09:44.592Z,21.60
2023-03-05T20:12:11.792Z,20.52
2023-03-05T20:14:40.306Z,18.65
2023-03-05T20:17:07.613Z,30.95
2023-03-05T20:19:36.765Z,27.50
2023-03-05T20:22:04.627Z,24.38
2023-03-05T20:24:31.891Z,25.85
2023-03-05T20:27:00.340Z,24.73
2023-03-05T20:29:27.631Z,29.98
2023-03-05T20:31:56.733Z,21.20
2023-03-05T20:34:23.962Z,22.02
2023-03-05T20:36:51.187Z,19.45
2023-03-05T20:39:18.759Z,18.05
2023-03-05T20:41:47.295Z,19.23
2023-03-05T20:44:14.990Z,20.23
2023-03-05T20:46:52.154Z,20.75
2023-03-05T20:49:42.684Z,26.63
2023-03-05T20:52:09.802Z,29.60
2023-03-05T20:54:37.120Z,25.00
2023-03-05T20:57:04.403Z,21.38
2023-03-05T20:59:31.719Z,20.55
2023-03-05T21:01:59.614Z,20.67
2023-03-05T21:04:28.760Z,21.90
2023-03-05T21:06:55.972Z,23.70
2023-03-05T21:09:24.161Z,19.83
2023-03-05T21:11:51.280Z,19.20
2023-03-05T21:14:19.895Z,16.95
2023-03-05T21:16:47.223Z,17.85
2023-03-05T21:19:14.467Z,18.08
2023-03-05T21:21:45.880Z,17.55
2023-03-05T21:24:21.689Z,17.90
2023-03-05T21:27:09.036Z,16.75
2023-03-05T21:29:36.195Z,18.45
2023-03-05T21:32:05.217Z,19.05
2023-03-05T21:34:32.612Z,16.00
2023-03-05T21:37:00.916Z,14.52
2023-03-05T21:39:28.063Z,17.80
2023-03-05T21:41:55.175Z,21.33
2023-03-05T21:44:22.307Z,18.05
2023-03-05T21:46:51.550Z,16.63
2023-03-05T21:49:18.652Z,18.38
2023-03-05T21:52:09.417Z,18.77
2023-03-05T21:54:37.468Z,17.30
2023-03-05T21:57:07.116Z,18.33
2023-03-05T21:59:35.642Z,14.73
2023-03-05T22:02:04.213Z,17.02
2023-03-05T22:04:32.648Z,18.30
2023-03-05T22:07:01.026Z,20.73
2023-03-05T22:09:28.733Z,20.67
2023-03-05T22:11:55.941Z,20.20
2023-03-05T22:14:23.291Z,21.70
2023-03-05T22:16:53.487Z,19.33
2023-03-05T22:19:21.424Z,17.92
2023-03-05T22:21:49.345Z,22.25
2023-03-05T22:24:16.540Z,19.17
2023-03-05T22:26:43.967Z,20.50
2023-03-05T22:29:12.033Z,19.20
2023-03-05T22:31:40.927Z,21.95
2023-03-05T22:34:08.310Z,21.95
2023-03-05T22:36:36.009Z,22.15
2023-03-05T22:39:03.974Z,20.33
2023-03-05T22:41:31.104Z,20.58
2023-03-05T22:43:58.322Z,21.45
2023-03-05T22:46:26.705Z,21.65
2023-03-05T22:48:54.500Z,18.17
2023-03-05T22:51:21.671Z,24.02
2023-03-05T22:53:48.974Z,19.73
2023-03-05T22:56:17.441Z,21.33
2023-03-05T22:58:44.791Z,19.73
2023-03-05T23:01:14.048Z,19.83
2023-03-05T23:03:41.802Z,21.80
2023-03-05T23:06:15.359Z,21.52
2023-03-05T23:08:43.558Z,20.85
2023-03-05T23:11:11.955Z,21.92
2023-03-05T23:13:40.135Z,21.30
2023-03-05T23:16:08.433Z,18.70
2023-03-05T23:18:35.788Z,21.45
2023-03-05T23:21:03.074Z,22.63
2023-03-05T23:23:30.408Z,20.60
2023-03-05T23:25:57.687Z,19.77
2023-03-05T23:28:24.920Z,21.67
2023-03-05T23:30:52.089Z,22.85
2023-03-05T23:33:21.068Z,20.02
2023-03-05T23:35:55.948Z,20.65
2023-03-05T23:38:23.592Z,21.08
2023-03-05T23:40:54.270Z,17.17
2023-03-05T23:43:27.610Z,21.27
2023-03-05T23:45:57.870Z,19.40
2023-03-05T23:48:25.521Z,20.17
2023-03-05T23:50:52.880Z,20.45
2023-03-05T23:53:21.385Z,19.17
2023-03-05T23:55:48.586Z,20.38
2023-03-05T23:58:16.276Z,25.88
